createdAt,value
2022-10-21T02:00:30.654Z,96.00
2022-10-21T02:00:51.247Z,96.00
2022-10-21T02:01:11.935Z,96.00
2022-10-21T02:01:32.660Z,96.00
2022-10-21T02:01:53.259Z,96.00
2022-10-21T02:02:13.843Z,95.96
2022-10-21T02:02:34.432Z,96.11
2022-10-21T02:02:55.013Z,95.96
2022-10-21T02:03:15.598Z,95.96
2022-10-21T02:03:36.177Z,96.21
2022-10-21T02:03:56.794Z,96.21
2022-10-21T02:04:17.379Z,96.27
2022-10-21T02:04:37.974Z,96.31
2022-10-21T02:04:58.554Z,96.17
2022-10-21T02:05:19.139Z,96.17
2022-10-21T02:05:39.747Z,96.17
2022-10-21T02:06:00.332Z,96.17
2022-10-21T02:06:20.925Z,96.17
2022-10-21T02:06:41.551Z,96.17
2022-10-21T02:07:02.139Z,96.27
2022-10-21T02:07:22.764Z,96.27
2022-10-21T02:07:43.354Z,96.37
2022-10-21T02:08:03.944Z,96.37
2022-10-21T02:08:24.520Z,96.27
2022-10-21T02:08:45.193Z,96.27
2022-10-21T02:09:05.836Z,96.27
2022-10-21T02:09:26.537Z,96.27
2022-10-21T02:09:47.137Z,96.27
2022-10-21T02:10:07.723Z,96.27
2022-10-21T02:10:28.321Z,96.17
2022-10-21T02:10:48.890Z,96.27
2022-10-21T02:11:09.478Z,96.27
2022-10-21T02:11:30.078Z,96.37
2022-10-21T02:11:50.743Z,96.37
2022-10-21T02:12:11.329Z,96.27
2022-10-21T02:12:31.917Z,96.37
2022-10-21T02:12:52.499Z,96.27
2022-10-21T02:13:13.582Z,96.37
2022-10-21T02:13:34.159Z,96.37
2022-10-21T02:13:54.733Z,96.37
2022-10-21T02:14:15.356Z,96.47
2022-10-21T02:14:35.978Z,96.58
2022-10-21T02:14:56.576Z,96.68
2022-10-21T02:15:17.160Z,96.68
2022-10-21T02:15:37.767Z,96.58
2022-10-21T02:15:58.343Z,96.68
2022-10-21T02:16:18.928Z,96.68
2022-10-21T02:16:39.524Z,96.58
2022-10-21T02:17:00.133Z,96.58
2022-10-21T02:17:20.719Z,96.58
2022-10-21T02:17:41.300Z,96.68
2022-10-21T02:18:02.044Z,96.68
2022-10-21T02:18:22.628Z,96.58
2022-10-21T02:18:43.216Z,96.58
2022-10-21T02:19:03.808Z,96.58
2022-10-21T02:19:24.446Z,96.58
2022-10-21T02:19:44.996Z,96.68
2022-10-21T02:20:05.576Z,96.68
2022-10-21T02:20:26.156Z,96.58
2022-10-21T02:20:46.551Z,96.58
2022-10-21T02:21:07.135Z,96.58
2022-10-21T02:21:27.716Z,96.58
2022-10-21T02:21:48.311Z,96.58
2022-10-21T02:22:08.901Z,96.58
2022-10-21T02:22:29.523Z,96.47
2022-10-21T02:22:50.075Z,96.37
2022-10-21T02:23:10.661Z,96.47
2022-10-21T02:23:31.258Z,96.47
2022-10-21T02:23:51.850Z,96.47
2022-10-21T02:24:12.460Z,96.47
2022-10-21T02:24:33.027Z,96.47
2022-10-21T02:24:53.604Z,96.37
2022-10-21T02:25:14.207Z,96.37
2022-10-21T02:25:34.794Z,96.37
2022-10-21T02:25:55.362Z,96.37
2022-10-21T02:26:15.962Z,96.47
2022-10-21T02:26:36.548Z,96.58
2022-10-21T02:26:57.127Z,96.58
2022-10-21T02:27:17.729Z,96.58
2022-10-21T02:27:38.318Z,96.58
2022-10-21T02:27:58.902Z,96.58
2022-10-21T02:28:19.497Z,96.58
2022-10-21T02:29:00.631Z,96.78
2022-10-21T02:29:21.229Z,96.78
2022-10-21T02:29:41.805Z,96.78
2022-10-21T02:30:02.425Z,96.68
2022-10-21T02:30:23.008Z,96.68
2022-10-21T02:30:43.597Z,96.68
2022-10-21T02:31:04.163Z,96.68
2022-10-21T02:31:24.763Z,96.68
2022-10-21T02:31:45.344Z,96.68
2022-10-21T02:32:05.933Z,96.68
2022-10-21T02:32:26.548Z,96.78
2022-10-21T02:32:47.131Z,96.78
2022-10-21T02:33:07.724Z,96.89
2022-10-21T02:33:28.307Z,96.89
2022-10-21T02:33:48.878Z,96.89
2022-10-21T02:34:09.470Z,96.89
2022-10-21T02:34:30.052Z,96.89
2022-10-21T02:34:50.637Z,96.78
2022-10-21T02:35:11.221Z,96.68
2022-10-21T02:35:31.804Z,96.68
2022-10-21T02:35:52.407Z,96.68
2022-10-21T02:36:13.014Z,96.68
2022-10-21T02:36:33.593Z,96.68
2022-10-21T02:36:54.165Z,96.68
2022-10-21T02:37:14.750Z,96.68
2022-10-21T02:37:35.408Z,96.58
2022-10-21T02:37:55.981Z,96.58
2022-10-21T02:38:16.580Z,96.58
2022-10-21T02:38:37.142Z,96.68
2022-10-21T02:38:57.724Z,96.68
2022-10-21T02:39:18.311Z,96.68
2022-10-21T02:39:38.912Z,96.78
2022-10-21T02:39:59.487Z,96.89
2022-10-21T02:40:20.050Z,96.89
2022-10-21T02:40:40.639Z,96.99
2022-10-21T02:41:01.228Z,96.99
2022-10-21T02:41:21.816Z,96.99
2022-10-21T02:41:42.392Z,96.99
2022-10-21T02:42:02.985Z,97.09
2022-10-21T02:42:23.578Z,97.19
2022-10-21T02:42:44.198Z,97.09
2022-10-21T02:43:04.773Z,97.09
2022-10-21T02:43:25.360Z,96.99
2022-10-21T02:43:45.939Z,96.99
2022-10-21T02:44:06.526Z,96.99
2022-10-21T02:44:27.114Z,96.99
2022-10-21T02:44:47.696Z,96.99
2022-10-21T02:45:08.296Z,96.89
2022-10-21T02:45:28.869Z,96.89
2022-10-21T02:45:49.470Z,96.78
2022-10-21T02:46:10.036Z,96.78
2022-10-21T02:46:30.441Z,96.78
2022-10-21T02:46:51.006Z,96.89
2022-10-21T02:47:32.136Z,96.89
2022-10-21T02:47:52.746Z,96.89
2022-10-21T02:48:13.355Z,96.78
2022-10-21T02:48:33.904Z,96.78
2022-10-21T02:48:54.487Z,96.89
2022-10-21T02:49:15.091Z,96.89
2022-10-21T02:49:35.649Z,96.89
2022-10-21T02:49:56.262Z,96.99
2022-10-21T02:50:16.837Z,96.89
2022-10-21T02:50:37.417Z,96.89
2022-10-21T02:50:58.036Z,96.89
2022-10-21T02:51:18.448Z,96.78
2022-10-21T02:51:39.000Z,96.78
2022-10-21T02:51:59.585Z,96.78
2022-10-21T02:52:20.172Z,96.78
2022-10-21T02:52:40.749Z,96.78
2022-10-21T02:53:01.362Z,96.78
2022-10-21T02:53:21.951Z,96.78
2022-10-21T02:53:42.589Z,96.78
2022-10-21T02:54:03.138Z,96.89
2022-10-21T02:54:23.727Z,96.89
2022-10-21T02:54:44.313Z,96.78
2022-10-21T02:55:04.889Z,96.78
2022-10-21T02:55:25.471Z,96.68
2022-10-21T02:55:46.149Z,96.68
2022-10-21T02:56:06.696Z,96.68
2022-10-21T02:56:27.301Z,96.58
2022-10-21T02:56:47.897Z,96.68
2022-10-21T02:57:08.501Z,96.68
2022-10-21T02:57:29.075Z,96.68
2022-10-21T02:57:49.680Z,96.89
2022-10-21T02:58:10.273Z,96.89
2022-10-21T02:58:30.856Z,96.89
2022-10-21T02:58:51.441Z,96.99
2022-10-21T02:59:12.020Z,96.89
2022-10-21T02:59:32.662Z,96.89
2022-10-21T02:59:53.244Z,96.89
2022-10-21T03:00:13.832Z,96.89
2022-10-21T03:00:34.430Z,96.78
2022-10-21T03:00:55.075Z,96.78
2022-10-21T03:01:15.716Z,96.68
2022-10-21T03:01:36.305Z,96.58
2022-10-21T03:01:56.875Z,96.58
2022-10-21T03:02:17.457Z,96.58
2022-10-21T03:02:38.033Z,96.68
2022-10-21T03:02:58.668Z,96.78
2022-10-21T03:03:19.250Z,96.89
2022-10-21T03:03:39.829Z,96.99
2022-10-21T03:04:00.412Z,96.99
2022-10-21T03:04:20.997Z,96.99
2022-10-21T03:04:41.622Z,96.99
2022-10-21T03:05:02.196Z,96.89
2022-10-21T03:05:22.859Z,96.89
2022-10-21T03:05:43.466Z,96.89
2022-10-21T03:06:04.043Z,96.99
2022-10-21T03:06:24.459Z,96.89
2022-10-21T03:06:45.042Z,96.89
2022-10-21T03:07:05.623Z,96.89
2022-10-21T03:07:26.227Z,96.89
2022-10-21T03:07:46.803Z,96.99
2022-10-21T03:08:07.397Z,96.99
2022-10-21T03:08:28.075Z,96.89
2022-10-21T03:08:48.741Z,96.99
2022-10-21T03:09:09.283Z,96.99
2022-10-21T03:09:29.864Z,96.99
2022-10-21T03:09:50.453Z,96.99
2022-10-21T03:10:11.039Z,96.99
2022-10-21T03:10:31.621Z,96.99
2022-10-21T03:10:53.380Z,96.99
2022-10-21T03:11:14.379Z,96.99
2022-10-21T03:11:34.933Z,96.89
2022-10-21T03:11:55.525Z,96.99
2022-10-21T03:12:16.129Z,96.99
2022-10-21T03:12:36.717Z,96.99
2022-10-21T03:12:57.305Z,96.99
2022-10-21T03:13:17.886Z,96.99
2022-10-21T03:13:38.481Z,96.99
2022-10-21T03:13:58.918Z,96.99
2022-10-21T03:14:19.455Z,96.99
2022-10-21T03:14:40.047Z,96.99
2022-10-21T03:15:00.632Z,97.09
2022-10-21T03:15:21.208Z,97.19
2022-10-21T03:15:41.788Z,97.19
2022-10-21T03:16:02.404Z,97.19
2022-10-21T03:16:22.984Z,97.19
2022-10-21T03:16:43.562Z,97.09
2022-10-21T03:17:04.158Z,97.09
2022-10-21T03:17:25.445Z,97.19
2022-10-21T03:17:46.169Z,97.30
2022-10-21T03:18:06.777Z,97.30
2022-10-21T03:18:27.361Z,97.19
2022-10-21T03:18:47.970Z,97.30
2022-10-21T03:19:08.535Z,97.30
2022-10-21T03:19:29.123Z,97.30
2022-10-21T03:19:49.701Z,97.30
2022-10-21T03:20:10.287Z,97.19
2022-10-21T03:20:30.889Z,97.19
2022-10-21T03:20:51.471Z,97.19
2022-10-21T03:21:12.051Z,97.19
2022-10-21T03:21:32.626Z,97.30
2022-10-21T03:21:53.025Z,97.30
2022-10-21T03:22:13.619Z,97.19
2022-10-21T03:22:34.229Z,97.19
2022-10-21T03:22:54.820Z,97.19
2022-10-21T03:23:15.418Z,97.19
2022-10-21T03:23:35.986Z,97.19
2022-10-21T03:23:56.577Z,97.09
2022-10-21T03:24:27.793Z,96.99
2022-10-21T03:24:37.551Z,96.99
2022-10-21T03:24:58.133Z,96.99
2022-10-21T03:25:18.726Z,97.09
2022-10-21T03:25:39.316Z,97.09
2022-10-21T03:25:59.910Z,97.09
2022-10-21T03:26:20.508Z,97.09
2022-10-21T03:26:41.088Z,97.09
2022-10-21T03:27:01.692Z,97.09
2022-10-21T03:27:22.306Z,97.09
2022-10-21T03:27:42.893Z,97.09
2022-10-21T03:28:03.493Z,97.09
2022-10-21T03:28:24.071Z,97.19
2022-10-21T03:28:44.650Z,97.30
2022-10-21T03:29:05.230Z,97.30
2022-10-21T03:29:25.804Z,97.19
2022-10-21T03:29:46.406Z,97.19
2022-10-21T03:30:06.994Z,97.19
2022-10-21T03:30:27.577Z,97.30
2022-10-21T03:30:48.180Z,97.40
2022-10-21T03:31:08.771Z,97.30
2022-10-21T03:31:29.333Z,97.30
2022-10-21T03:31:49.942Z,97.30
2022-10-21T03:32:10.513Z,97.40
2022-10-21T03:32:31.094Z,97.30
2022-10-21T03:32:51.711Z,97.19
2022-10-21T03:33:12.287Z,97.19
2022-10-21T03:33:32.869Z,97.19
2022-10-21T03:33:53.463Z,97.09
2022-10-21T03:34:14.070Z,97.09
2022-10-21T03:34:34.667Z,97.09
2022-10-21T03:34:55.258Z,97.09
2022-10-21T03:35:15.894Z,97.09
2022-10-21T03:35:36.430Z,97.09
2022-10-21T03:35:57.021Z,97.19
2022-10-21T03:36:17.607Z,97.19
2022-10-21T03:36:38.213Z,97.09
2022-10-21T03:36:58.806Z,97.09
2022-10-21T03:37:19.384Z,97.19
2022-10-21T03:37:39.988Z,97.19
2022-10-21T03:38:00.605Z,97.19
2022-10-21T03:38:21.191Z,97.19
2022-10-21T03:38:41.813Z,97.19
2022-10-21T03:39:02.402Z,97.19
2022-10-21T03:39:22.990Z,97.19
2022-10-21T03:39:43.570Z,97.09
2022-10-21T03:40:05.461Z,97.09
2022-10-21T03:40:29.136Z,97.19
2022-10-21T03:40:49.704Z,97.19
2022-10-21T03:41:10.284Z,97.19
2022-10-21T03:41:30.873Z,97.19
2022-10-21T03:41:51.453Z,97.30
2022-10-21T03:42:12.033Z,97.30
2022-10-21T03:42:32.446Z,97.30
2022-10-21T03:42:53.055Z,97.30
2022-10-21T03:43:13.636Z,97.30
2022-10-21T03:43:34.236Z,97.30
2022-10-21T03:43:54.820Z,97.30
2022-10-21T03:44:15.405Z,97.40
2022-10-21T03:44:35.983Z,97.40
2022-10-21T03:44:56.592Z,97.40
2022-10-21T03:45:17.181Z,97.50
2022-10-21T03:45:37.786Z,97.50
2022-10-21T03:45:58.382Z,97.50
2022-10-21T03:46:18.989Z,97.50
2022-10-21T03:46:39.556Z,97.50
2022-10-21T03:47:00.141Z,97.50
2022-10-21T03:47:20.735Z,97.50
2022-10-21T03:47:41.327Z,97.50
2022-10-21T03:48:01.940Z,97.50
2022-10-21T03:48:22.530Z,97.50
2022-10-21T03:48:43.132Z,97.50
2022-10-21T03:49:05.569Z,97.50
2022-10-21T03:49:28.203Z,97.50
2022-10-21T03:49:48.573Z,97.50
2022-10-21T03:50:13.035Z,97.50
2022-10-21T03:50:29.575Z,97.61
2022-10-21T03:50:50.179Z,97.61
2022-10-21T03:51:10.774Z,97.61
2022-10-21T03:51:31.353Z,97.61
2022-10-21T03:51:51.938Z,97.61
2022-10-21T03:52:12.522Z,97.61
2022-10-21T03:52:33.115Z,97.61
2022-10-21T03:52:53.720Z,97.61
2022-10-21T03:53:30.937Z,97.61
2022-10-21T03:53:43.604Z,97.71
2022-10-21T03:53:55.122Z,97.71
2022-10-21T03:54:15.735Z,97.71
2022-10-21T03:54:36.331Z,97.71
2022-10-21T03:54:56.932Z,97.71
2022-10-21T03:55:17.519Z,97.61
2022-10-21T03:55:38.120Z,97.61
2022-10-21T03:55:58.697Z,97.61
2022-10-21T03:56:19.291Z,97.61
2022-10-21T03:56:39.862Z,97.61
2022-10-21T03:57:00.440Z,97.61
2022-10-21T03:57:21.044Z,97.61
2022-10-21T03:57:42.087Z,97.61
2022-10-21T03:58:02.928Z,97.61
2022-10-21T03:58:23.515Z,97.61
2022-10-21T03:58:44.096Z,97.61
2022-10-21T03:59:04.692Z,97.61
2022-10-21T03:59:25.295Z,97.61
2022-10-21T03:59:45.877Z,97.61
2022-10-21T04:00:06.527Z,97.61
2022-10-21T04:00:29.505Z,97.61
2022-10-21T04:00:52.172Z,97.71
2022-10-21T04:01:12.899Z,97.71
2022-10-21T04:01:33.618Z,97.71
2022-10-21T04:01:54.275Z,97.61
2022-10-21T04:02:14.892Z,97.61
2022-10-21T04:02:35.692Z,97.61
2022-10-21T04:02:56.472Z,97.61
2022-10-21T04:03:17.069Z,97.71
2022-10-21T04:03:37.678Z,97.71
2022-10-21T04:03:58.254Z,97.71
2022-10-21T04:04:18.638Z,97.71
2022-10-21T04:04:39.220Z,97.71
2022-10-21T04:04:59.808Z,97.71
2022-10-21T04:05:20.391Z,97.71
2022-10-21T04:05:40.982Z,97.81
2022-10-21T04:06:01.568Z,97.81
2022-10-21T04:06:22.171Z,97.81
2022-10-21T04:06:42.768Z,97.81
2022-10-21T04:07:03.359Z,97.81
2022-10-21T04:07:23.942Z,97.81
2022-10-21T04:07:48.035Z,97.81
2022-10-21T04:08:04.958Z,97.81
2022-10-21T04:08:25.545Z,97.91
2022-10-21T04:08:46.211Z,97.91
2022-10-21T04:09:06.987Z,97.91
2022-10-21T04:09:27.570Z,97.91
2022-10-21T04:09:48.155Z,97.91
2022-10-21T04:10:08.755Z,97.91
2022-10-21T04:10:29.350Z,97.91
2022-10-21T04:10:49.984Z,97.91
2022-10-21T04:11:10.546Z,97.91
2022-10-21T04:11:31.130Z,97.91
2022-10-21T04:11:51.715Z,97.91
2022-10-21T04:12:12.766Z,97.91
2022-10-21T04:12:33.400Z,97.91
2022-10-21T04:12:54.015Z,97.91
2022-10-21T04:13:14.616Z,97.91
2022-10-21T04:13:35.205Z,97.91
2022-10-21T04:13:55.792Z,97.91
2022-10-21T04:14:16.380Z,97.91
2022-10-21T04:14:36.967Z,97.91
2022-10-21T04:14:57.559Z,97.91
2022-10-21T04:15:18.146Z,97.91
2022-10-21T04:15:38.746Z,97.81
2022-10-21T04:15:59.335Z,97.81
2022-10-21T04:16:19.907Z,97.81
2022-10-21T04:16:40.516Z,97.91
2022-10-21T04:17:07.468Z,97.91
2022-10-21T04:17:21.495Z,97.91
2022-10-21T04:17:42.108Z,98.02
2022-10-21T04:18:02.695Z,98.02
2022-10-21T04:18:23.282Z,98.12
2022-10-21T04:18:43.871Z,98.12
2022-10-21T04:19:04.450Z,98.12
2022-10-21T04:19:25.043Z,98.12
2022-10-21T04:19:45.621Z,98.12
2022-10-21T04:20:06.197Z,98.12
2022-10-21T04:20:26.796Z,98.12
2022-10-21T04:20:47.375Z,98.12
2022-10-21T04:21:07.973Z,98.02
2022-10-21T04:21:28.578Z,98.02
2022-10-21T04:21:49.166Z,98.02
2022-10-21T04:22:09.758Z,98.02
2022-10-21T04:22:30.428Z,98.02
2022-10-21T04:22:51.060Z,98.02
2022-10-21T04:23:11.622Z,98.12
2022-10-21T04:23:32.209Z,98.12
2022-10-21T04:23:52.794Z,98.12
2022-10-21T04:24:13.375Z,98.12
2022-10-21T04:24:33.955Z,98.12
2022-10-21T04:24:54.542Z,98.22
2022-10-21T04:25:15.139Z,98.22
2022-10-21T04:25:35.715Z,98.22
2022-10-21T04:25:56.292Z,98.22
2022-10-21T04:26:16.881Z,98.22
2022-10-21T04:26:37.461Z,98.22
2022-10-21T04:26:58.048Z,98.22
2022-10-21T04:27:18.630Z,98.33
2022-10-21T04:27:39.234Z,98.33
2022-10-21T04:27:59.822Z,98.33
2022-10-21T04:28:20.399Z,98.33
2022-10-21T04:28:40.794Z,98.33
2022-10-21T04:29:01.433Z,98.33
2022-10-21T04:29:22.029Z,98.33
2022-10-21T04:29:42.608Z,98.33
2022-10-21T04:30:03.188Z,98.33
2022-10-21T04:30:23.787Z,98.33
2022-10-21T04:30:44.371Z,98.33
2022-10-21T04:31:04.952Z,98.43
2022-10-21T04:31:28.547Z,98.43
2022-10-21T04:31:46.030Z,98.43
2022-10-21T04:32:06.637Z,98.43
2022-10-21T04:32:27.217Z,98.43
2022-10-21T04:32:47.816Z,98.43
2022-10-21T04:33:08.425Z,98.43
2022-10-21T04:33:29.000Z,98.33
2022-10-21T04:33:49.584Z,98.33
2022-10-21T04:34:10.171Z,98.33
2022-10-21T04:34:30.760Z,98.33
2022-10-21T04:34:51.371Z,98.33
2022-10-21T04:35:11.972Z,98.33
2022-10-21T04:35:32.603Z,98.33
2022-10-21T04:35:53.222Z,98.33
2022-10-21T04:36:13.835Z,98.33
2022-10-21T04:36:34.464Z,98.33
2022-10-21T04:36:55.007Z,98.33
2022-10-21T04:37:15.610Z,98.33
2022-10-21T04:37:36.192Z,98.43
2022-10-21T04:37:56.793Z,98.43
2022-10-21T04:38:17.379Z,98.33
2022-10-21T04:38:37.972Z,98.33
2022-10-21T04:38:58.570Z,98.33
2022-10-21T04:39:19.151Z,98.22
2022-10-21T04:39:39.729Z,98.33
2022-10-21T04:40:00.369Z,98.22
2022-10-21T04:40:20.922Z,98.22
2022-10-21T04:40:41.505Z,98.22
2022-10-21T04:41:02.090Z,98.33
2022-10-21T04:41:22.675Z,98.33
2022-10-21T04:41:43.271Z,98.33
2022-10-21T04:42:03.850Z,98.22
2022-10-21T04:42:24.529Z,98.22
2022-10-21T04:42:45.099Z,98.22
2022-10-21T04:43:05.687Z,98.33
2022-10-21T04:43:26.275Z,98.33
2022-10-21T04:43:46.861Z,98.22
2022-10-21T04:44:07.468Z,98.22
2022-10-21T04:44:28.073Z,98.22
2022-10-21T04:44:48.666Z,98.22
2022-10-21T04:45:09.261Z,98.22
2022-10-21T04:45:29.832Z,98.12
2022-10-21T04:45:50.414Z,98.22
2022-10-21T04:46:12.066Z,98.22
2022-10-21T04:46:32.755Z,98.33
2022-10-21T04:46:53.172Z,98.33
2022-10-21T04:47:13.816Z,98.33
2022-10-21T04:47:34.417Z,98.33
2022-10-21T04:47:55.018Z,98.33
2022-10-21T04:48:15.599Z,98.22
2022-10-21T04:48:36.182Z,98.22
2022-10-21T04:48:56.784Z,98.22
2022-10-21T04:49:17.366Z,98.22
2022-10-21T04:49:37.950Z,98.22
2022-10-21T04:49:58.541Z,98.22
2022-10-21T04:50:19.150Z,98.33
2022-10-21T04:50:39.760Z,98.33
2022-10-21T04:51:00.341Z,98.33
2022-10-21T04:51:21.012Z,98.33
2022-10-21T04:51:41.603Z,98.33
2022-10-21T04:52:02.264Z,98.33
2022-10-21T04:52:22.850Z,98.22
2022-10-21T04:52:43.433Z,98.22
2022-10-21T04:53:04.050Z,98.22
2022-10-21T04:53:24.636Z,98.33
2022-10-21T04:53:45.230Z,98.22
2022-10-21T04:54:05.814Z,98.22
2022-10-21T04:54:26.397Z,98.22
2022-10-21T04:54:46.997Z,98.22
2022-10-21T04:55:07.591Z,98.22
2022-10-21T04:55:27.970Z,98.22
2022-10-21T04:55:48.553Z,98.22
2022-10-21T04:56:09.135Z,98.22
2022-10-21T04:56:29.737Z,98.22
2022-10-21T04:56:50.324Z,98.22
2022-10-21T04:57:10.942Z,98.22
2022-10-21T04:57:31.538Z,98.22
2022-10-21T04:57:52.145Z,98.22
2022-10-21T04:58:12.739Z,98.22
2022-10-21T04:58:33.312Z,98.22
2022-10-21T04:58:53.923Z,98.12
2022-10-21T04:59:14.524Z,98.12
2022-10-21T04:59:35.150Z,98.12
2022-10-21T04:59:55.765Z,98.02
2022-10-21T05:00:16.358Z,98.02
2022-10-21T05:00:37.007Z,98.02
2022-10-21T05:00:57.644Z,98.12
2022-10-21T05:01:18.447Z,98.12
2022-10-21T05:01:39.054Z,98.02
2022-10-21T05:01:59.672Z,98.02
2022-10-21T05:02:22.976Z,98.12
2022-10-21T05:02:41.079Z,98.02
2022-10-21T05:03:01.947Z,98.02
2022-10-21T05:03:22.531Z,98.02
2022-10-21T05:03:43.143Z,98.02
2022-10-21T05:04:03.731Z,98.02
2022-10-21T05:04:24.310Z,98.02
2022-10-21T05:04:44.895Z,98.02
2022-10-21T05:05:05.485Z,98.02
2022-10-21T05:05:26.059Z,98.02
2022-10-21T05:05:46.644Z,97.91
2022-10-21T05:06:07.227Z,97.91
2022-10-21T05:06:27.806Z,97.91
2022-10-21T05:06:48.393Z,97.91
2022-10-21T05:07:09.024Z,97.91
2022-10-21T05:07:29.613Z,97.91
2022-10-21T05:07:50.219Z,97.91
2022-10-21T05:08:11.761Z,97.91
2022-10-21T05:08:32.542Z,97.91
2022-10-21T05:08:53.123Z,97.91
2022-10-21T05:09:13.807Z,97.81
2022-10-21T05:09:34.405Z,97.81
2022-10-21T05:09:55.002Z,97.91
2022-10-21T05:10:15.598Z,97.91
2022-10-21T05:10:36.188Z,97.91
2022-10-21T05:10:56.780Z,97.81
2022-10-21T05:11:17.386Z,97.81
2022-10-21T05:11:37.971Z,97.81
2022-10-21T05:11:58.555Z,97.81
2022-10-21T05:12:19.151Z,97.81
2022-10-21T05:12:39.767Z,97.81
2022-10-21T05:13:00.372Z,97.81
2022-10-21T05:13:20.953Z,97.71
2022-10-21T05:13:41.551Z,97.71
2022-10-21T05:14:02.123Z,97.71
2022-10-21T05:14:23.059Z,97.81
2022-10-21T05:14:43.627Z,97.77
2022-10-21T05:15:04.260Z,97.81
2022-10-21T05:15:24.860Z,97.71
2022-10-21T05:15:45.446Z,97.71
2022-10-21T05:16:06.038Z,97.71
2022-10-21T05:16:26.628Z,97.71
2022-10-21T05:16:47.221Z,97.71
2022-10-21T05:17:07.834Z,97.71
2022-10-21T05:17:28.401Z,97.71
2022-10-21T05:17:48.979Z,97.71
2022-10-21T05:18:09.588Z,97.71
2022-10-21T05:18:30.170Z,97.61
2022-10-21T05:18:50.785Z,97.61
2022-10-21T05:19:11.386Z,97.61
2022-10-21T05:19:32.003Z,97.61
2022-10-21T05:19:52.588Z,97.61
2022-10-21T05:20:13.167Z,97.71
2022-10-21T05:20:33.755Z,97.71
2022-10-21T05:20:54.352Z,97.71
2022-10-21T05:21:14.920Z,97.71
2022-10-21T05:21:56.101Z,97.61
2022-10-21T05:22:16.671Z,97.61
2022-10-21T05:22:37.496Z,97.50
2022-10-21T05:22:58.289Z,97.50
2022-10-21T05:23:18.892Z,97.50
2022-10-21T05:23:39.479Z,97.50
2022-10-21T05:24:00.079Z,97.50
2022-10-21T05:24:20.654Z,97.50
2022-10-21T05:24:41.252Z,97.61
2022-10-21T05:25:01.823Z,97.61
2022-10-21T05:25:23.685Z,97.71
2022-10-21T05:25:44.573Z,97.71
2022-10-21T05:26:05.160Z,97.61
2022-10-21T05:26:25.760Z,97.61
2022-10-21T05:26:46.353Z,97.71
2022-10-21T05:27:06.938Z,97.71
2022-10-21T05:27:27.570Z,97.71
2022-10-21T05:27:48.112Z,97.71
2022-10-21T05:28:08.692Z,97.61
2022-10-21T05:28:29.337Z,97.61
2022-10-21T05:28:50.714Z,97.61
2022-10-21T05:29:11.298Z,97.61
2022-10-21T05:29:31.923Z,97.50
2022-10-21T05:29:52.487Z,97.50
2022-10-21T05:30:13.093Z,97.50
2022-10-21T05:30:33.762Z,97.50
2022-10-21T05:30:54.342Z,97.50
2022-10-21T05:31:14.934Z,97.50
2022-10-21T05:31:35.556Z,97.50
2022-10-21T05:31:56.120Z,97.50
2022-10-21T05:32:16.729Z,97.40
2022-10-21T05:32:37.552Z,97.40
2022-10-21T05:32:58.258Z,97.40
2022-10-21T05:33:18.860Z,97.40
2022-10-21T05:33:39.445Z,97.45
2022-10-21T05:34:00.046Z,97.50
2022-10-21T05:34:20.631Z,97.56
2022-10-21T05:34:41.217Z,97.45
2022-10-21T05:35:01.791Z,97.45
2022-10-21T05:35:22.370Z,97.45
2022-10-21T05:35:42.966Z,97.56
2022-10-21T05:36:03.539Z,97.61
2022-10-21T05:36:24.338Z,97.56
2022-10-21T05:36:44.918Z,97.66
2022-10-21T05:37:05.514Z,97.66
2022-10-21T05:37:26.128Z,97.71
2022-10-21T05:37:46.716Z,97.66
2022-10-21T05:38:07.303Z,97.71
2022-10-21T05:38:27.893Z,97.66
2022-10-21T05:38:48.564Z,97.71
2022-10-21T05:39:09.147Z,97.71
2022-10-21T05:39:29.784Z,97.71
2022-10-21T05:39:50.357Z,97.71
2022-10-21T05:40:10.937Z,97.71
2022-10-21T05:40:31.514Z,97.66
2022-10-21T05:40:52.099Z,97.81
2022-10-21T05:41:12.687Z,97.81
2022-10-21T05:41:33.264Z,97.81
2022-10-21T05:41:53.846Z,97.71
2022-10-21T05:42:14.426Z,97.61
2022-10-21T05:42:35.164Z,97.61
2022-10-21T05:42:55.751Z,97.61
2022-10-21T05:43:16.332Z,97.61
2022-10-21T05:43:36.922Z,97.71
2022-10-21T05:43:57.515Z,97.71
2022-10-21T05:44:18.113Z,97.71
2022-10-21T05:44:38.700Z,97.66
2022-10-21T05:44:59.285Z,97.81
2022-10-21T05:45:19.884Z,97.71
2022-10-21T05:45:40.468Z,97.71
2022-10-21T05:46:01.050Z,97.56
2022-10-21T05:46:21.629Z,97.61
2022-10-21T05:46:42.210Z,97.56
2022-10-21T05:47:03.369Z,97.66
2022-10-21T05:47:23.967Z,97.77
2022-10-21T05:47:44.520Z,97.77
2022-10-21T05:48:05.119Z,97.77
2022-10-21T05:48:25.795Z,97.77
2022-10-21T05:49:06.915Z,97.81
2022-10-21T05:49:27.489Z,97.77
2022-10-21T05:49:48.071Z,97.81
2022-10-21T05:50:08.656Z,97.77
2022-10-21T05:50:29.250Z,97.81
2022-10-21T05:50:49.832Z,97.81
2022-10-21T05:51:10.423Z,97.81
2022-10-21T05:51:30.997Z,97.77
2022-10-21T05:51:51.613Z,97.77
2022-10-21T05:52:12.197Z,97.77
2022-10-21T05:52:32.778Z,97.81
2022-10-21T05:52:54.796Z,97.77
2022-10-21T05:53:16.291Z,97.77
2022-10-21T05:53:36.873Z,97.77
2022-10-21T05:53:57.461Z,97.77
2022-10-21T05:54:18.064Z,97.66
2022-10-21T05:54:38.678Z,97.66
2022-10-21T05:54:59.274Z,97.66
2022-10-21T05:55:19.834Z,97.66
2022-10-21T05:55:40.426Z,97.66
2022-10-21T05:56:01.030Z,97.56
2022-10-21T05:56:21.599Z,97.56
2022-10-21T05:56:42.193Z,97.61
2022-10-21T05:57:02.778Z,97.66
2022-10-21T05:57:23.390Z,97.66
2022-10-21T05:57:43.883Z,97.66
2022-10-21T05:58:04.459Z,97.66
2022-10-21T05:58:25.042Z,97.66
2022-10-21T05:58:45.625Z,97.66
2022-10-21T05:59:09.330Z,97.56
2022-10-21T05:59:30.845Z,97.56
2022-10-21T05:59:51.403Z,97.56
2022-10-21T06:00:11.999Z,97.56
2022-10-21T06:00:32.566Z,97.56
2022-10-21T06:00:53.216Z,97.56
2022-10-21T06:01:13.822Z,97.56
2022-10-21T06:01:34.502Z,97.56
2022-10-21T06:01:55.091Z,97.66
2022-10-21T06:02:15.694Z,97.66
2022-10-21T06:02:36.617Z,97.66
2022-10-21T06:02:57.353Z,97.77
2022-10-21T06:03:17.934Z,97.77
2022-10-21T06:03:38.513Z,97.66
2022-10-21T06:03:59.097Z,97.66
2022-10-21T06:04:19.673Z,97.66
2022-10-21T06:04:40.271Z,97.66
2022-10-21T06:05:00.852Z,97.66
2022-10-21T06:05:21.450Z,97.77
2022-10-21T06:05:42.028Z,97.77
2022-10-21T06:06:02.613Z,97.77
2022-10-21T06:06:23.207Z,97.66
2022-10-21T06:06:43.938Z,97.66
2022-10-21T06:07:04.522Z,97.66
2022-10-21T06:07:25.130Z,97.77
2022-10-21T06:07:45.709Z,97.77
2022-10-21T06:08:06.293Z,97.77
2022-10-21T06:08:26.922Z,97.77
2022-10-21T06:08:47.546Z,97.77
2022-10-21T06:09:08.171Z,97.77
2022-10-21T06:09:28.753Z,97.77
2022-10-21T06:09:49.342Z,97.77
2022-10-21T06:10:09.935Z,97.77
2022-10-21T06:10:30.599Z,97.77
2022-10-21T06:10:51.160Z,97.77
2022-10-21T06:11:11.752Z,97.87
2022-10-21T06:11:32.330Z,97.77
2022-10-21T06:11:52.938Z,97.77
2022-10-21T06:12:13.539Z,97.66
2022-10-21T06:12:34.119Z,97.66
2022-10-21T06:12:54.695Z,97.66
2022-10-21T06:13:15.295Z,97.66
2022-10-21T06:13:35.893Z,97.66
2022-10-21T06:13:56.472Z,97.77
2022-10-21T06:14:17.054Z,97.77
2022-10-21T06:14:37.678Z,97.77
2022-10-21T06:14:58.299Z,97.77
2022-10-21T06:15:18.856Z,97.77
2022-10-21T06:15:39.412Z,97.77
2022-10-21T06:16:00.097Z,97.77
2022-10-21T06:16:20.708Z,97.77
2022-10-21T06:16:41.288Z,97.77
2022-10-21T06:17:01.886Z,97.66
2022-10-21T06:17:22.476Z,97.66
2022-10-21T06:17:43.076Z,97.77
2022-10-21T06:18:03.645Z,97.77
2022-10-21T06:18:24.249Z,97.77
2022-10-21T06:18:44.804Z,97.77
2022-10-21T06:19:05.591Z,97.87
2022-10-21T06:19:26.176Z,97.87
2022-10-21T06:19:50.129Z,97.87
2022-10-21T06:20:11.661Z,97.87
2022-10-21T06:20:32.249Z,97.87
2022-10-21T06:20:52.868Z,97.77
2022-10-21T06:21:13.436Z,97.77
2022-10-21T06:21:33.821Z,97.77
2022-10-21T06:21:54.432Z,97.66
2022-10-21T06:22:15.022Z,97.66
2022-10-21T06:22:35.641Z,97.56
2022-10-21T06:22:56.200Z,97.56
2022-10-21T06:23:16.787Z,97.56
2022-10-21T06:23:37.359Z,97.45
2022-10-21T06:23:57.979Z,97.45
2022-10-21T06:24:18.560Z,97.45
2022-10-21T06:24:39.179Z,97.56
2022-10-21T06:24:59.762Z,97.56
2022-10-21T06:25:20.351Z,97.56
2022-10-21T06:25:40.938Z,97.56
2022-10-21T06:26:01.513Z,97.56
2022-10-21T06:26:22.094Z,97.45
2022-10-21T06:26:42.686Z,97.45
2022-10-21T06:27:03.260Z,97.36
2022-10-21T06:27:23.846Z,97.36